sensor_id;sensor_type;location;lat;lon;timestamp;P1;durP1;ratioP1;P2;durP2;ratioP2
21412;SDS011;10867;45.084;5.732;2022-10-22T00:00:27;19.88;;;14.75;;
21412;SDS011;10867;45.084;5.732;2022-10-22T00:03:27;16.67;;;11.75;;
21412;SDS011;10867;45.084;5.732;2022-10-22T00:06:16;21.20;;;12.52;;
21412;SDS011;10867;45.084;5.732;2022-10-22T00:09:07;17.23;;;12.05;;
21412;SDS011;10867;45.084;5.732;2022-10-22T00:11:33;23.15;;;13.48;;
21412;SDS011;10867;45.084;5.732;2022-10-22T00:13:59;18.08;;;11.38;;
21412;SDS011;10867;45.084;5.732;2022-10-22T00:16:25;18.48;;;11.57;;
21412;SDS011;10867;45.084;5.732;2022-10-22T00:18:54;21.88;;;13.95;;
21412;SDS011;10867;45.084;5.732;2022-10-22T00:21:20;34.50;;;14.80;;
21412;SDS011;10867;45.084;5.732;2022-10-22T00:23:46;43.58;;;17.73;;
21412;SDS011;10867;45.084;5.732;2022-10-22T00:26:12;22.83;;;16.42;;
21412;SDS011;10867;45.084;5.732;2022-10-22T00:28:39;22.52;;;15.95;;
21412;SDS011;10867;45.084;5.732;2022-10-22T00:31:05;22.93;;;14.83;;
21412;SDS011;10867;45.084;5.732;2022-10-22T00:33:41;19.55;;;14.40;;
21412;SDS011;10867;45.084;5.732;2022-10-22T00:36:10;24.95;;;15.70;;
21412;SDS011;10867;45.084;5.732;2022-10-22T00:38:36;20.27;;;14.25;;
21412;SDS011;10867;45.084;5.732;2022-10-22T00:41:05;22.10;;;14.80;;
21412;SDS011;10867;45.084;5.732;2022-10-22T00:43:52;22.35;;;15.70;;
21412;SDS011;10867;45.084;5.732;2022-10-22T00:46:21;19.92;;;15.30;;
21412;SDS011;10867;45.084;5.732;2022-10-22T00:48:50;21.15;;;14.75;;
21412;SDS011;10867;45.084;5.732;2022-10-22T00:51:23;26.00;;;16.42;;
21412;SDS011;10867;45.084;5.732;2022-10-22T00:53:53;20.08;;;15.40;;
21412;SDS011;10867;45.084;5.732;2022-10-22T00:56:22;22.55;;;15.93;;
21412;SDS011;10867;45.084;5.732;2022-10-22T00:58:55;17.77;;;11.60;;
21412;SDS011;10867;45.084;5.732;2022-10-22T01:01:50;12.57;;;10.02;;
21412;SDS011;10867;45.084;5.732;2022-10-22T01:04:38;14.35;;;8.05;;
21412;SDS011;10867;45.084;5.732;2022-10-22T01:07:10;7.65;;;6.22;;
21412;SDS011;10867;45.084;5.732;2022-10-22T01:09:41;9.27;;;6.80;;
21412;SDS011;10867;45.084;5.732;2022-10-22T01:16:07;11.73;;;6.20;;
21412;SDS011;10867;45.084;5.732;2022-10-22T01:21:59;9.32;;;7.03;;
21412;SDS011;10867;45.084;5.732;2022-10-22T01:25:08;10.23;;;7.88;;
21412;SDS011;10867;45.084;5.732;2022-10-22T01:31:44;8.27;;;6.38;;
21412;SDS011;10867;45.084;5.732;2022-10-22T01:34:31;10.20;;;6.63;;
21412;SDS011;10867;45.084;5.732;2022-10-22T01:37:36;6.68;;;5.10;;
21412;SDS011;10867;45.084;5.732;2022-10-22T01:40:11;8.18;;;5.88;;
21412;SDS011;10867;45.084;5.732;2022-10-22T01:43:00;5.78;;;4.32;;
21412;SDS011;10867;45.084;5.732;2022-10-22T01:46:00;5.38;;;3.90;;
21412;SDS011;10867;45.084;5.732;2022-10-22T02:11:38;6.70;;;3.60;;
21412;SDS011;10867;45.084;5.732;2022-10-22T02:21:49;4.63;;;3.50;;
21412;SDS011;10867;45.084;5.732;2022-10-22T02:53:22;4.25;;;3.20;;
21412;SDS011;10867;45.084;5.732;2022-10-22T02:56:36;4.35;;;3.55;;
21412;SDS011;10867;45.084;5.732;2022-10-22T02:59:47;7.78;;;4.50;;
21412;SDS011;10867;45.084;5.732;2022-10-22T03:02:46;6.20;;;4.68;;
21412;SDS011;10867;45.084;5.732;2022-10-22T03:09:21;5.53;;;3.40;;
21412;SDS011;10867;45.084;5.732;2022-10-22T03:32:15;7.15;;;4.20;;
21412;SDS011;10867;45.084;5.732;2022-10-22T03:34:47;4.78;;;3.30;;
21412;SDS011;10867;45.084;5.732;2022-10-22T03:38:01;8.80;;;3.87;;
21412;SDS011;10867;45.084;5.732;2022-10-22T03:40:33;5.50;;;3.78;;
21412;SDS011;10867;45.084;5.732;2022-10-22T03:43:17;6.97;;;3.67;;
21412;SDS011;10867;45.084;5.732;2022-10-22T03:46:06;5.40;;;3.47;;
21412;SDS011;10867;45.084;5.732;2022-10-22T03:48:35;5.00;;;3.50;;
21412;SDS011;10867;45.084;5.732;2022-10-22T03:51:03;6.13;;;4.30;;
21412;SDS011;10867;45.084;5.732;2022-10-22T03:53:32;5.15;;;3.85;;
21412;SDS011;10867;45.084;5.732;2022-10-22T03:56:01;4.65;;;3.30;;
21412;SDS011;10867;45.084;5.732;2022-10-22T04:04:59;3.85;;;3.10;;
21412;SDS011;10867;45.084;5.732;2022-10-22T04:08:11;4.95;;;3.08;;
21412;SDS011;10867;45.084;5.732;2022-10-22T04:11:17;5.43;;;3.40;;
21412;SDS011;10867;45.084;5.732;2022-10-22T04:14:34;4.23;;;3.20;;
21412;SDS011;10867;45.084;5.732;2022-10-22T04:17:11;5.82;;;3.30;;
21412;SDS011;10867;45.084;5.732;2022-10-22T04:20:01;5.78;;;3.00;;
21412;SDS011;10867;45.084;5.732;2022-10-22T04:26:06;3.97;;;2.90;;
21412;SDS011;10867;45.084;5.732;2022-10-22T04:28:34;7.00;;;3.45;;
21412;SDS011;10867;45.084;5.732;2022-10-22T04:31:45;5.30;;;3.55;;
21412;SDS011;10867;45.084;5.732;2022-10-22T04:34:36;5.40;;;2.87;;
21412;SDS011;10867;45.084;5.732;2022-10-22T04:37:24;4.05;;;2.40;;
21412;SDS011;10867;45.084;5.732;2022-10-22T04:40:00;4.15;;;2.30;;
21412;SDS011;10867;45.084;5.732;2022-10-22T04:42:30;4.20;;;2.67;;
21412;SDS011;10867;45.084;5.732;2022-10-22T04:45:12;5.38;;;3.38;;
21412;SDS011;10867;45.084;5.732;2022-10-22T04:47:44;5.60;;;3.00;;
21412;SDS011;10867;45.084;5.732;2022-10-22T04:50:18;3.53;;;2.50;;
21412;SDS011;10867;45.084;5.732;2022-10-22T04:56:33;3.47;;;2.30;;
21412;SDS011;10867;45.084;5.732;2022-10-22T04:59:07;3.00;;;2.20;;
21412;SDS011;10867;45.084;5.732;2022-10-22T05:01:53;4.60;;;2.37;;
21412;SDS011;10867;45.084;5.732;2022-10-22T05:04:19;4.50;;;2.75;;
21412;SDS011;10867;45.084;5.732;2022-10-22T05:07:17;4.50;;;2.83;;
21412;SDS011;10867;45.084;5.732;2022-10-22T05:13:02;3.53;;;2.15;;
21412;SDS011;10867;45.084;5.732;2022-10-22T05:15:32;3.63;;;1.90;;
21412;SDS011;10867;45.084;5.732;2022-10-22T05:21:47;3.63;;;1.70;;
21412;SDS011;10867;45.084;5.732;2022-10-22T05:24:25;3.20;;;1.40;;
21412;SDS011;10867;45.084;5.732;2022-10-22T05:27:01;1.55;;;1.30;;
21412;SDS011;10867;45.084;5.732;2022-10-22T05:30:05;3.67;;;1.70;;
21412;SDS011;10867;45.084;5.732;2022-10-22T05:39:43;2.45;;;1.40;;
21412;SDS011;10867;45.084;5.732;2022-10-22T05:46:07;3.55;;;1.60;;
21412;SDS011;10867;45.084;5.732;2022-10-22T05:49:17;2.33;;;1.67;;
21412;SDS011;10867;45.084;5.732;2022-10-22T06:31:35;3.65;;;1.80;;
21412;SDS011;10867;45.084;5.732;2022-10-22T07:44:38;3.10;;;2.80;;
21412;SDS011;10867;45.084;5.732;2022-10-22T07:47:28;5.30;;;2.93;;
21412;SDS011;10867;45.084;5.732;2022-10-22T07:57:11;4.50;;;2.90;;
21412;SDS011;10867;45.084;5.732;2022-10-22T07:59:37;7.78;;;5.20;;
21412;SDS011;10867;45.084;5.732;2022-10-22T09:57:59;2.40;;;1.27;;
21412;SDS011;10867;45.084;5.732;2022-10-22T17:14:27;3.85;;;1.60;;
21412;SDS011;10867;45.084;5.732;2022-10-22T17:17:30;5.40;;;1.77;;
21412;SDS011;10867;45.084;5.732;2022-10-22T17:20:05;4.55;;;1.50;;
21412;SDS011;10867;45.084;5.732;2022-10-22T17:29:09;5.13;;;1.42;;
21412;SDS011;10867;45.084;5.732;2022-10-22T17:31:43;3.95;;;1.48;;
21412;SDS011;10867;45.084;5.732;2022-10-22T17:34:32;2.25;;;1.48;;
21412;SDS011;10867;45.084;5.732;2022-10-22T17:37:39;6.15;;;1.60;;
21412;SDS011;10867;45.084;5.732;2022-10-22T17:40:18;3.30;;;1.50;;
21412;SDS011;10867;45.084;5.732;2022-10-22T17:42:56;4.05;;;1.50;;
21412;SDS011;10867;45.084;5.732;2022-10-22T17:45:32;5.05;;;1.75;;
21412;SDS011;10867;45.084;5.732;2022-10-22T17:48:30;5.72;;;1.80;;
21412;SDS011;10867;45.084;5.732;2022-10-22T17:51:11;5.18;;;1.70;;
21412;SDS011;10867;45.084;5.732;2022-10-22T17:53:56;5.93;;;1.70;;
21412;SDS011;10867;45.084;5.732;2022-10-22T17:56:45;3.45;;;1.40;;
21412;SDS011;10867;45.084;5.732;2022-10-22T17:59:32;5.78;;;1.80;;
21412;SDS011;10867;45.084;5.732;2022-10-22T18:02:23;4.68;;;1.98;;
21412;SDS011;10867;45.084;5.732;2022-10-22T18:05:31;3.40;;;1.63;;
21412;SDS011;10867;45.084;5.732;2022-10-22T18:08:00;5.47;;;1.90;;
21412;SDS011;10867;45.084;5.732;2022-10-22T18:10:28;5.67;;;1.87;;
21412;SDS011;10867;45.084;5.732;2022-10-22T18:12:55;5.25;;;2.08;;
21412;SDS011;10867;45.084;5.732;2022-10-22T18:18:48;4.47;;;2.20;;
21412;SDS011;10867;45.084;5.732;2022-10-22T18:24:28;6.90;;;2.17;;
21412;SDS011;10867;45.084;5.732;2022-10-22T18:27:23;4.90;;;2.00;;
21412;SDS011;10867;45.084;5.732;2022-10-22T18:30:06;5.90;;;2.05;;
21412;SDS011;10867;45.084;5.732;2022-10-22T18:32:45;8.30;;;2.40;;
21412;SDS011;10867;45.084;5.732;2022-10-22T18:35:45;7.07;;;2.08;;
21412;SDS011;10867;45.084;5.732;2022-10-22T18:38:34;4.55;;;1.90;;
21412;SDS011;10867;45.084;5.732;2022-10-22T18:41:24;4.70;;;2.17;;
21412;SDS011;10867;45.084;5.732;2022-10-22T18:44:13;4.60;;;2.30;;
21412;SDS011;10867;45.084;5.732;2022-10-22T18:47:10;6.43;;;2.17;;
21412;SDS011;10867;45.084;5.732;2022-10-22T18:52:45;7.15;;;2.55;;
21412;SDS011;10867;45.084;5.732;2022-10-22T18:55:46;7.65;;;2.30;;
21412;SDS011;10867;45.084;5.732;2022-10-22T19:01:33;5.35;;;2.28;;
21412;SDS011;10867;45.084;5.732;2022-10-22T19:04:30;7.25;;;2.08;;
21412;SDS011;10867;45.084;5.732;2022-10-22T19:07:12;5.87;;;2.27;;
21412;SDS011;10867;45.084;5.732;2022-10-22T19:09:47;6.03;;;2.08;;
21412;SDS011;10867;45.084;5.732;2022-10-22T19:12:19;5.30;;;2.15;;
21412;SDS011;10867;45.084;5.732;2022-10-22T19:14:45;6.82;;;2.50;;
21412;SDS011;10867;45.084;5.732;2022-10-22T19:17:14;6.00;;;2.58;;
21412;SDS011;10867;45.084;5.732;2022-10-22T19:19:56;3.95;;;1.70;;
21412;SDS011;10867;45.084;5.732;2022-10-22T19:22:37;7.60;;;2.30;;
21412;SDS011;10867;45.084;5.732;2022-10-22T19:25:06;4.20;;;1.83;;
21412;SDS011;10867;45.084;5.732;2022-10-22T19:27:35;5.47;;;1.85;;
21412;SDS011;10867;45.084;5.732;2022-10-22T19:30:31;4.95;;;2.20;;
21412;SDS011;10867;45.084;5.732;2022-10-22T19:33:19;5.82;;;1.90;;
21412;SDS011;10867;45.084;5.732;2022-10-22T19:42:13;4.90;;;1.70;;
21412;SDS011;10867;45.084;5.732;2022-10-22T19:44:42;7.55;;;2.20;;
21412;SDS011;10867;45.084;5.732;2022-10-22T19:53:47;7.93;;;2.42;;
21412;SDS011;10867;45.084;5.732;2022-10-22T19:56:47;8.70;;;2.40;;
21412;SDS011;10867;45.084;5.732;2022-10-22T19:59:46;8.07;;;2.97;;
21412;SDS011;10867;45.084;5.732;2022-10-22T20:02:43;6.20;;;2.90;;
21412;SDS011;10867;45.084;5.732;2022-10-22T20:05:12;5.07;;;2.30;;
21412;SDS011;10867;45.084;5.732;2022-10-22T20:07:58;5.22;;;2.10;;
21412;SDS011;10867;45.084;5.732;2022-10-22T20:10:27;5.22;;;2.40;;
21412;SDS011;10867;45.084;5.732;2022-10-22T20:16:56;6.47;;;2.30;;
21412;SDS011;10867;45.084;5.732;2022-10-22T20:23:37;7.10;;;2.40;;
21412;SDS011;10867;45.084;5.732;2022-10-22T20:40:18;4.33;;;2.23;;
21412;SDS011;10867;45.084;5.732;2022-10-22T20:50:03;8.25;;;2.55;;
21412;SDS011;10867;45.084;5.732;2022-10-22T20:53:12;5.55;;;2.55;;
21412;SDS011;10867;45.084;5.732;2022-10-22T21:08:45;5.13;;;2.00;;
21412;SDS011;10867;45.084;5.732;2022-10-22T21:11:40;6.75;;;2.17;;
21412;SDS011;10867;45.084;5.732;2022-10-22T21:18:00;4.25;;;2.42;;
21412;SDS011;10867;45.084;5.732;2022-10-22T21:20:58;7.93;;;2.17;;
21412;SDS011;10867;45.084;5.732;2022-10-22T21:23:55;5.63;;;2.03;;
21412;SDS011;10867;45.084;5.732;2022-10-22T21:26:28;10.00;;;2.30;;
21412;SDS011;10867;45.084;5.732;2022-10-22T21:28:58;6.43;;;2.20;;
21412;SDS011;10867;45.084;5.732;2022-10-22T21:31:26;8.07;;;2.20;;
21412;SDS011;10867;45.084;5.732;2022-10-22T21:34:05;5.25;;;2.08;;
21412;SDS011;10867;45.084;5.732;2022-10-22T21:37:04;4.13;;;2.00;;
21412;SDS011;10867;45.084;5.732;2022-10-22T21:40:04;6.13;;;2.25;;
21412;SDS011;10867;45.084;5.732;2022-10-22T21:42:32;7.32;;;2.47;;
21412;SDS011;10867;45.084;5.732;2022-10-22T21:45:14;6.87;;;2.17;;
21412;SDS011;10867;45.084;5.732;2022-10-22T21:48:08;6.20;;;2.30;;
21412;SDS011;10867;45.084;5.732;2022-10-22T21:50:40;6.90;;;2.40;;
21412;SDS011;10867;45.084;5.732;2022-10-22T21:53:14;4.70;;;1.88;;
21412;SDS011;10867;45.084;5.732;2022-10-22T21:55:45;8.25;;;2.60;;
21412;SDS011;10867;45.084;5.732;2022-10-22T21:58:11;6.00;;;2.10;;
21412;SDS011;10867;45.084;5.732;2022-10-22T22:00:47;5.07;;;2.10;;
21412;SDS011;10867;45.084;5.732;2022-10-22T22:06:17;5.60;;;2.00;;
21412;SDS011;10867;45.084;5.732;2022-10-22T22:08:48;6.50;;;2.08;;
21412;SDS011;10867;45.084;5.732;2022-10-22T22:11:45;6.63;;;2.45;;
21412;SDS011;10867;45.084;5.732;2022-10-22T22:20:40;7.25;;;2.88;;
21412;SDS011;10867;45.084;5.732;2022-10-22T22:23:58;4.93;;;2.50;;
21412;SDS011;10867;45.084;5.732;2022-10-22T22:36:21;6.00;;;2.45;;
21412;SDS011;10867;45.084;5.732;2022-10-22T22:38:48;6.25;;;2.50;;
21412;SDS011;10867;45.084;5.732;2022-10-22T22:47:53;9.10;;;2.83;;
21412;SDS011;10867;45.084;5.732;2022-10-22T22:50:23;6.57;;;2.60;;
21412;SDS011;10867;45.084;5.732;2022-10-22T22:52:53;5.90;;;2.22;;
21412;SDS011;10867;45.084;5.732;2022-10-22T22:58:31;6.82;;;2.50;;
21412;SDS011;10867;45.084;5.732;2022-10-22T23:01:19;6.23;;;2.57;;
21412;SDS011;10867;45.084;5.732;2022-10-22T23:03:56;5.45;;;2.10;;
21412;SDS011;10867;45.084;5.732;2022-10-22T23:06:52;3.97;;;2.25;;
21412;SDS011;10867;45.084;5.732;2022-10-22T23:09:24;6.28;;;2.47;;
21412;SDS011;10867;45.084;5.732;2022-10-22T23:15:57;12.43;;;2.80;;
21412;SDS011;10867;45.084;5.732;2022-10-22T23:18:23;7.50;;;2.20;;
21412;SDS011;10867;45.084;5.732;2022-10-22T23:20:55;4.82;;;2.05;;
21412;SDS011;10867;45.084;5.732;2022-10-22T23:23:26;5.30;;;1.92;;
21412;SDS011;10867;45.084;5.732;2022-10-22T23:25:54;5.75;;;2.25;;
21412;SDS011;10867;45.084;5.732;2022-10-22T23:28:28;5.95;;;2.17;;
21412;SDS011;10867;45.084;5.732;2022-10-22T23:30:57;8.98;;;2.50;;
21412;SDS011;10867;45.084;5.732;2022-10-22T23:34:22;3.72;;;2.05;;
21412;SDS011;10867;45.084;5.732;2022-10-22T23:37:17;6.20;;;2.00;;
21412;SDS011;10867;45.084;5.732;2022-10-22T23:39:51;2.83;;;1.90;;
21412;SDS011;10867;45.084;5.732;2022-10-22T23:42:23;4.63;;;2.20;;
21412;SDS011;10867;45.084;5.732;2022-10-22T23:45:02;6.60;;;1.80;;
21412;SDS011;10867;45.084;5.732;2022-10-22T23:47:53;5.55;;;2.40;;
21412;SDS011;10867;45.084;5.732;2022-10-22T23:50:30;6.57;;;2.38;;
21412;SDS011;10867;45.084;5.732;2022-10-22T23:52:59;8.05;;;2.38;;
21412;SDS011;10867;45.084;5.732;2022-10-22T23:55:38;8.65;;;2.30;;
21412;SDS011;10867;45.084;5.732;2022-10-22T23:58:14;5.50;;;2.08;;
